Aura — WDJ4216 — position and weather

sailwx.info

Track history (hours):
 
Tides and Currents Weather Stations Pressure Air Temp Water Temp Dewpoint Dewpoint Depression Visibility Wind Speed Wind Dir Waves Ship Positions

Aura

Owner: Seabulk Towing, Lake Charles, LA. More information available from US FCC via Universal Licensing System and Coast Guard Vessel Documentation Center.

Last reported at 2018-Jan-21 16:30 UTC. Time now 2018-Jan-21 16:46 UTC.
Position N 27°55' W 082°27'.

Length 30 m.

Type: Other ship. MMSI: 367560980.

Date/timePositionNaut miles runAvg speedWind from/ knotsBaromVisibWave heightAir tempDewpointWater temp
2018-Jan-21 16:30N 27°55' W 082°27'0 0.0
2018-Jan-21 16:00N 27°55' W 082°27'0 0.0
2018-Jan-21 15:30N 27°55' W 082°27'1 2.5
2018-Jan-21 15:00N 27°54' W 082°26'1 1.9
2018-Jan-21 14:29N 27°55' W 082°25'2 3.8
2018-Jan-21 13:59N 27°54' W 082°26'3 5.9
2018-Jan-21 13:30N 27°51' W 082°26'2 5.0
2018-Jan-21 13:00N 27°51' W 082°24'0 0.2
2018-Jan-21 12:15N 27°51' W 082°23'2 8.5
2018-Jan-21 12:00N 27°51' W 082°26'4 7.6
2018-Jan-21 11:30N 27°55' W 082°26'1 1.4
2018-Jan-21 10:58N 27°55' W 082°27'0 0.0
2018-Jan-21 10:30N 27°55' W 082°27'0 0.0
2018-Jan-21 10:00N 27°55' W 082°27'0 0.0
2018-Jan-21 09:30N 27°55' W 082°27'0 0.0
2018-Jan-21 09:00N 27°55' W 082°27'0 0.0
2018-Jan-21 08:30N 27°55' W 082°27'0 0.0
2018-Jan-21 07:59N 27°55' W 082°27'0 0.0
2018-Jan-21 07:30N 27°55' W 082°27'0 0.0
2018-Jan-21 07:00N 27°55' W 082°27'0 0.0
2018-Jan-21 06:30N 27°55' W 082°27'0 0.0
2018-Jan-21 06:00N 27°55' W 082°27'0 0.0
2018-Jan-21 05:30N 27°55' W 082°27'0 0.0
2018-Jan-21 04:59N 27°55' W 082°27'0 0.0
2018-Jan-21 04:30N 27°55' W 082°27'0 0.0
2018-Jan-21 04:00N 27°55' W 082°27'0 0.0
2018-Jan-21 03:30N 27°55' W 082°27'0 0.0
2018-Jan-21 03:00N 27°55' W 082°27'0 0.0
2018-Jan-21 02:30N 27°55' W 082°27'0 0.0
2018-Jan-21 02:00N 27°55' W 082°27'0 0.0
2018-Jan-21 01:30N 27°55' W 082°27'0 0.0
2018-Jan-21 01:00N 27°55' W 082°27'0 0.0
2018-Jan-21 00:30N 27°55' W 082°27'0 0.0
2018-Jan-21 00:00N 27°55' W 082°27'0 0.0
2018-Jan-20 23:30N 27°55' W 082°27'0 0.0
2018-Jan-20 23:00N 27°55' W 082°27'0 0.0
2018-Jan-20 22:30N 27°55' W 082°27'0 0.0
2018-Jan-20 22:00N 27°55' W 082°27'0 0.0
2018-Jan-20 21:30N 27°55' W 082°27'0 0.0
2018-Jan-20 21:00N 27°55' W 082°27'0 0.0
2018-Jan-20 20:30N 27°55' W 082°27'0 0.0
2018-Jan-20 20:00N 27°55' W 082°27'0 0.5
2018-Jan-20 19:30N 27°55' W 082°27'0 0.2
2018-Jan-20 19:00N 27°55' W 082°27'1 1.6
2018-Jan-20 18:30N 27°54' W 082°26'0 0.6
2018-Jan-20 18:00N 27°55' W 082°27'1 1.5
2018-Jan-20 17:30N 27°55' W 082°27'0 0.0
2018-Jan-20 17:00N 27°55' W 082°27'0 0.0
2018-Jan-20 16:30N 27°55' W 082°27'0 0.0
2018-Jan-20 16:00N 27°55' W 082°27'0 0.0
2018-Jan-20 15:30N 27°55' W 082°27'0 0.0
2018-Jan-20 15:00N 27°55' W 082°27'0 0.0
2018-Jan-20 14:30N 27°55' W 082°27'0 0.0
2018-Jan-20 14:00N 27°55' W 082°27'0 0.0
2018-Jan-20 13:30N 27°55' W 082°27'0 0.0
2018-Jan-20 13:00N 27°55' W 082°27'0 0.0
2018-Jan-20 12:30N 27°55' W 082°27'0 0.0
2018-Jan-20 12:00N 27°55' W 082°27'2 3.1
2018-Jan-20 11:29N 27°54' W 082°26'1 1.5
2018-Jan-20 11:00N 27°54' W 082°25'1 2.9
2018-Jan-20 10:30N 27°54' W 082°26'1 2.3
2018-Jan-20 10:00N 27°55' W 082°27'0 0.0
2018-Jan-20 09:30N 27°55' W 082°27'0 0.0
2018-Jan-20 09:00N 27°55' W 082°27'0 0.0
2018-Jan-20 08:30N 27°55' W 082°27'0 0.0
2018-Jan-20 08:00N 27°55' W 082°27'0 0.0
2018-Jan-20 07:30N 27°55' W 082°27'0 0.0
2018-Jan-20 07:00N 27°55' W 082°27'0 0.0
2018-Jan-20 06:30N 27°55' W 082°27'0 0.0
2018-Jan-20 06:00N 27°55' W 082°27'0 0.0
2018-Jan-20 05:30N 27°55' W 082°27'0 0.0
2018-Jan-20 05:00N 27°55' W 082°27'0 0.0
2018-Jan-20 04:30N 27°55' W 082°27'0 0.0
2018-Jan-20 04:00N 27°55' W 082°27'0 0.0
2018-Jan-20 03:30N 27°55' W 082°27'0 0.0
2018-Jan-20 02:59N 27°55' W 082°27'0 0.0
2018-Jan-20 02:30N 27°55' W 082°27'0 0.0
2018-Jan-20 02:00N 27°55' W 082°27'0 0.0
2018-Jan-20 01:30N 27°55' W 082°27'0 0.0
2018-Jan-20 01:00N 27°55' W 082°27'0 0.0
2018-Jan-20 00:30N 27°55' W 082°27'0 0.0
2018-Jan-20 00:00N 27°55' W 082°27'0 0.0
2018-Jan-19 23:30N 27°55' W 082°27'0 0.0
2018-Jan-19 23:00N 27°55' W 082°27'0 0.0
2018-Jan-19 22:29N 27°55' W 082°27'3 5.8
2018-Jan-19 22:00N 27°53' W 082°27'3 1.9
2018-Jan-19 20:32N 27°51' W 082°24'0 1.8
2018-Jan-19 20:30N 27°51' W 082°24'2 4.8
2018-Jan-19 20:00N 27°51' W 082°26'2 3.8
2018-Jan-19 19:30N 27°53' W 082°26'2 4.7
2018-Jan-19 19:00N 27°55' W 082°26'0 0.7
2018-Jan-19 18:30N 27°55' W 082°25'1 2.6
2018-Jan-19 18:00N 27°55' W 082°27'0 0.6
2018-Jan-19 17:30N 27°55' W 082°27'0 0.0
2018-Jan-19 17:00N 27°55' W 082°27'0 0.0
2018-Jan-19 16:30N 27°55' W 082°27'0 0.0
2018-Jan-19 16:00N 27°55' W 082°27'0 0.0
2018-Jan-19 15:29N 27°55' W 082°27'0 0.0
2018-Jan-19 15:00N 27°55' W 082°27'0 0.0
2018-Jan-19 14:30N 27°55' W 082°27'0 0.0
2018-Jan-19 14:00N 27°55' W 082°27'0 0.0
2018-Jan-19 13:30N 27°55' W 082°27'0 0.0
2018-Jan-19 13:00N 27°55' W 082°27'0 0.0
2018-Jan-19 12:30N 27°55' W 082°27'0 0.0
2018-Jan-19 12:00N 27°55' W 082°27'0 0.0
2018-Jan-19 11:30N 27°55' W 082°27'0 0.0
2018-Jan-19 10:59N 27°55' W 082°27'0 0.0
2018-Jan-19 10:30N 27°55' W 082°27'0 0.0
2018-Jan-19 10:00N 27°55' W 082°27'0 0.0
2018-Jan-19 09:30N 27°55' W 082°27'0 0.0
2018-Jan-19 09:00N 27°55' W 082°27'0 0.0
2018-Jan-19 08:30N 27°55' W 082°27'0 0.0
2018-Jan-19 08:00N 27°55' W 082°27'0 0.0
2018-Jan-19 07:30N 27°55' W 082°27'0 0.7
2018-Jan-19 07:00N 27°55' W 082°27'0 0.2
2018-Jan-19 06:30N 27°55' W 082°27'0 0.6
2018-Jan-19 06:00N 27°55' W 082°27'0 0.0
2018-Jan-19 05:30N 27°55' W 082°27'0 0.0
2018-Jan-19 05:00N 27°55' W 082°27'0 0.0
2018-Jan-19 04:30N 27°55' W 082°27'0 0.0
2018-Jan-19 04:00N 27°55' W 082°27'0 0.0
2018-Jan-19 03:30N 27°55' W 082°27'0 0.0
2018-Jan-19 03:00N 27°55' W 082°27'0 0.0
2018-Jan-19 02:30N 27°55' W 082°27'0 0.0
2018-Jan-19 02:00N 27°55' W 082°27'0 0.0
2018-Jan-19 01:30N 27°55' W 082°27'0 0.0
2018-Jan-19 01:00N 27°55' W 082°27'0 0.0
2018-Jan-19 00:30N 27°55' W 082°27'0 0.0
2018-Jan-18 23:59N 27°55' W 082°27'0 0.0
2018-Jan-18 23:30N 27°55' W 082°27'0 0.0
2018-Jan-18 23:00N 27°55' W 082°27'0 0.0
2018-Jan-18 22:30N 27°55' W 082°27'0 0.0
2018-Jan-18 22:00N 27°55' W 082°27'0 0.0
2018-Jan-18 21:30N 27°55' W 082°27'0 0.0
2018-Jan-18 21:00N 27°55' W 082°27'1 2.5
2018-Jan-18 20:30N 27°55' W 082°26'1 1.4
2018-Jan-18 20:00N 27°55' W 082°25'1 2.5
2018-Jan-18 19:30N 27°54' W 082°26'1 1.4
2018-Jan-18 19:00N 27°55' W 082°27'1 1.2
2018-Jan-18 18:30N 27°55' W 082°27'0 0.0
2018-Jan-18 18:00N 27°55' W 082°27'0 0.0
2018-Jan-18 17:30N 27°55' W 082°27'0 0.0
2018-Jan-18 17:00N 27°55' W 082°27'0 0.0
2018-Jan-18 16:30N 27°55' W 082°27'0 0.0
2018-Jan-18 15:59N 27°55' W 082°27'0 0.0
2018-Jan-18 15:30N 27°55' W 082°27'0 0.0
2018-Jan-18 15:00N 27°55' W 082°27'0 0.0
2018-Jan-18 14:30N 27°55' W 082°27'0 0.0
2018-Jan-18 14:00N 27°55' W 082°27'0 0.0
2018-Jan-18 13:30N 27°55' W 082°27'0 0.0
2018-Jan-18 13:00N 27°55' W 082°27'0 0.0
2018-Jan-18 12:30N 27°55' W 082°27'0 0.0
2018-Jan-18 12:00N 27°55' W 082°27'0 0.0
2018-Jan-18 11:30N 27°55' W 082°27'0 0.0
2018-Jan-18 11:00N 27°55' W 082°27'0 0.0
2018-Jan-18 10:30N 27°55' W 082°27'0 0.0
2018-Jan-18 10:00N 27°55' W 082°27'0 0.0
2018-Jan-18 09:30N 27°55' W 082°27'0 0.0
2018-Jan-18 09:00N 27°55' W 082°27'0 0.0
2018-Jan-18 08:30N 27°55' W 082°27'0 0.0
2018-Jan-18 08:00N 27°55' W 082°27'0 0.0
2018-Jan-18 07:30N 27°55' W 082°27'0 0.0
2018-Jan-18 07:00N 27°55' W 082°27'0 0.0
2018-Jan-18 06:30N 27°55' W 082°27'0 0.0
2018-Jan-18 06:00N 27°55' W 082°27'0 0.0
2018-Jan-18 05:29N 27°55' W 082°27'0 0.0
2018-Jan-18 05:00N 27°55' W 082°27'0 0.0
2018-Jan-18 04:30N 27°55' W 082°27'0 0.0
2018-Jan-18 04:00N 27°55' W 082°27'0 0.0
2018-Jan-18 03:30N 27°55' W 082°27'0 0.0
2018-Jan-18 03:00N 27°55' W 082°27'0 0.0
2018-Jan-18 02:30N 27°55' W 082°27'0 0.0
2018-Jan-18 02:00N 27°55' W 082°27'0 0.0
2018-Jan-18 01:30N 27°55' W 082°27'0 0.0
2018-Jan-18 01:00N 27°55' W 082°27'0 0.0
2018-Jan-18 00:00N 27°55' W 082°27'0 0.0
2018-Jan-17 23:57N 27°55' W 082°27'  
Track history (hours):
 
Tides and Currents Weather Stations Pressure Air Temp Water Temp Dewpoint Dewpoint Depression Visibility Wind Speed Wind Dir Waves Ship Positions

Aura

Owner: Seabulk Towing, Lake Charles, LA. More information available from US FCC via Universal Licensing System and Coast Guard Vessel Documentation Center.

Last reported at 2018-Jan-21 16:30 UTC. Time now 2018-Jan-21 16:46 UTC.
Position N 27°55' W 082°27'.

Length 30 m.

Type: Other ship. MMSI: 367560980.

Date/timePositionNaut miles runAvg speedWind from/ knotsBaromVisibWave heightAir tempDewpointWater temp
2018-Jan-21 16:30N 27°55' W 082°27'0 0.0
2018-Jan-21 16:00N 27°55' W 082°27'0 0.0
2018-Jan-21 15:30N 27°55' W 082°27'1 2.5
2018-Jan-21 15:00N 27°54' W 082°26'1 1.9
2018-Jan-21 14:29N 27°55' W 082°25'2 3.8
2018-Jan-21 13:59N 27°54' W 082°26'3 5.9
2018-Jan-21 13:30N 27°51' W 082°26'2 5.0
2018-Jan-21 13:00N 27°51' W 082°24'0 0.2
2018-Jan-21 12:15N 27°51' W 082°23'2 8.5
2018-Jan-21 12:00N 27°51' W 082°26'4 7.6
2018-Jan-21 11:30N 27°55' W 082°26'1 1.4
2018-Jan-21 10:58N 27°55' W 082°27'0 0.0
2018-Jan-21 10:30N 27°55' W 082°27'0 0.0
2018-Jan-21 10:00N 27°55' W 082°27'0 0.0
2018-Jan-21 09:30N 27°55' W 082°27'0 0.0
2018-Jan-21 09:00N 27°55' W 082°27'0 0.0
2018-Jan-21 08:30N 27°55' W 082°27'0 0.0
2018-Jan-21 07:59N 27°55' W 082°27'0 0.0
2018-Jan-21 07:30N 27°55' W 082°27'0 0.0
2018-Jan-21 07:00N 27°55' W 082°27'0 0.0
2018-Jan-21 06:30N 27°55' W 082°27'0 0.0
2018-Jan-21 06:00N 27°55' W 082°27'0 0.0
2018-Jan-21 05:30N 27°55' W 082°27'0 0.0
2018-Jan-21 04:59N 27°55' W 082°27'0 0.0
2018-Jan-21 04:30N 27°55' W 082°27'0 0.0
2018-Jan-21 04:00N 27°55' W 082°27'0 0.0
2018-Jan-21 03:30N 27°55' W 082°27'0 0.0
2018-Jan-21 03:00N 27°55' W 082°27'0 0.0
2018-Jan-21 02:30N 27°55' W 082°27'0 0.0
2018-Jan-21 02:00N 27°55' W 082°27'0 0.0
2018-Jan-21 01:30N 27°55' W 082°27'0 0.0
2018-Jan-21 01:00N 27°55' W 082°27'0 0.0
2018-Jan-21 00:30N 27°55' W 082°27'0 0.0
2018-Jan-21 00:00N 27°55' W 082°27'0 0.0
2018-Jan-20 23:30N 27°55' W 082°27'0 0.0
2018-Jan-20 23:00N 27°55' W 082°27'0 0.0
2018-Jan-20 22:30N 27°55' W 082°27'0 0.0
2018-Jan-20 22:00N 27°55' W 082°27'0 0.0
2018-Jan-20 21:30N 27°55' W 082°27'0 0.0
2018-Jan-20 21:00N 27°55' W 082°27'0 0.0
2018-Jan-20 20:30N 27°55' W 082°27'0 0.0
2018-Jan-20 20:00N 27°55' W 082°27'0 0.5
2018-Jan-20 19:30N 27°55' W 082°27'0 0.2
2018-Jan-20 19:00N 27°55' W 082°27'1 1.6
2018-Jan-20 18:30N 27°54' W 082°26'0 0.6
2018-Jan-20 18:00N 27°55' W 082°27'1 1.5
2018-Jan-20 17:30N 27°55' W 082°27'0 0.0
2018-Jan-20 17:00N 27°55' W 082°27'0 0.0
2018-Jan-20 16:30N 27°55' W 082°27'0 0.0
2018-Jan-20 16:00N 27°55' W 082°27'0 0.0
2018-Jan-20 15:30N 27°55' W 082°27'0 0.0
2018-Jan-20 15:00N 27°55' W 082°27'0 0.0
2018-Jan-20 14:30N 27°55' W 082°27'0 0.0
2018-Jan-20 14:00N 27°55' W 082°27'0 0.0
2018-Jan-20 13:30N 27°55' W 082°27'0 0.0
2018-Jan-20 13:00N 27°55' W 082°27'0 0.0
2018-Jan-20 12:30N 27°55' W 082°27'0 0.0
2018-Jan-20 12:00N 27°55' W 082°27'2 3.1
2018-Jan-20 11:29N 27°54' W 082°26'1 1.5
2018-Jan-20 11:00N 27°54' W 082°25'1 2.9
2018-Jan-20 10:30N 27°54' W 082°26'1 2.3
2018-Jan-20 10:00N 27°55' W 082°27'0 0.0
2018-Jan-20 09:30N 27°55' W 082°27'0 0.0
2018-Jan-20 09:00N 27°55' W 082°27'0 0.0
2018-Jan-20 08:30N 27°55' W 082°27'0 0.0
2018-Jan-20 08:00N 27°55' W 082°27'0 0.0
2018-Jan-20 07:30N 27°55' W 082°27'0 0.0
2018-Jan-20 07:00N 27°55' W 082°27'0 0.0
2018-Jan-20 06:30N 27°55' W 082°27'0 0.0
2018-Jan-20 06:00N 27°55' W 082°27'0 0.0
2018-Jan-20 05:30N 27°55' W 082°27'0 0.0
2018-Jan-20 05:00N 27°55' W 082°27'0 0.0
2018-Jan-20 04:30N 27°55' W 082°27'0 0.0
2018-Jan-20 04:00N 27°55' W 082°27'0 0.0
2018-Jan-20 03:30N 27°55' W 082°27'0 0.0
2018-Jan-20 02:59N 27°55' W 082°27'0 0.0
2018-Jan-20 02:30N 27°55' W 082°27'0 0.0
2018-Jan-20 02:00N 27°55' W 082°27'0 0.0
2018-Jan-20 01:30N 27°55' W 082°27'0 0.0
2018-Jan-20 01:00N 27°55' W 082°27'0 0.0
2018-Jan-20 00:30N 27°55' W 082°27'0 0.0
2018-Jan-20 00:00N 27°55' W 082°27'0 0.0
2018-Jan-19 23:30N 27°55' W 082°27'0 0.0
2018-Jan-19 23:00N 27°55' W 082°27'0 0.0
2018-Jan-19 22:29N 27°55' W 082°27'3 5.8
2018-Jan-19 22:00N 27°53' W 082°27'3 1.9
2018-Jan-19 20:32N 27°51' W 082°24'0 1.8
2018-Jan-19 20:30N 27°51' W 082°24'2 4.8
2018-Jan-19 20:00N 27°51' W 082°26'2 3.8
2018-Jan-19 19:30N 27°53' W 082°26'2 4.7
2018-Jan-19 19:00N 27°55' W 082°26'0 0.7
2018-Jan-19 18:30N 27°55' W 082°25'1 2.6
2018-Jan-19 18:00N 27°55' W 082°27'0 0.6
2018-Jan-19 17:30N 27°55' W 082°27'0 0.0
2018-Jan-19 17:00N 27°55' W 082°27'0 0.0
2018-Jan-19 16:30N 27°55' W 082°27'0 0.0
2018-Jan-19 16:00N 27°55' W 082°27'0 0.0
2018-Jan-19 15:29N 27°55' W 082°27'0 0.0
2018-Jan-19 15:00N 27°55' W 082°27'0 0.0
2018-Jan-19 14:30N 27°55' W 082°27'0 0.0
2018-Jan-19 14:00N 27°55' W 082°27'0 0.0
2018-Jan-19 13:30N 27°55' W 082°27'0 0.0
2018-Jan-19 13:00N 27°55' W 082°27'0 0.0
2018-Jan-19 12:30N 27°55' W 082°27'0 0.0
2018-Jan-19 12:00N 27°55' W 082°27'0 0.0
2018-Jan-19 11:30N 27°55' W 082°27'0 0.0
2018-Jan-19 10:59N 27°55' W 082°27'0 0.0
2018-Jan-19 10:30N 27°55' W 082°27'0 0.0
2018-Jan-19 10:00N 27°55' W 082°27'0 0.0
2018-Jan-19 09:30N 27°55' W 082°27'0 0.0
2018-Jan-19 09:00N 27°55' W 082°27'0 0.0
2018-Jan-19 08:30N 27°55' W 082°27'0 0.0
2018-Jan-19 08:00N 27°55' W 082°27'0 0.0
2018-Jan-19 07:30N 27°55' W 082°27'0 0.7
2018-Jan-19 07:00N 27°55' W 082°27'0 0.2
2018-Jan-19 06:30N 27°55' W 082°27'0 0.6
2018-Jan-19 06:00N 27°55' W 082°27'0 0.0
2018-Jan-19 05:30N 27°55' W 082°27'0 0.0
2018-Jan-19 05:00N 27°55' W 082°27'0 0.0
2018-Jan-19 04:30N 27°55' W 082°27'0 0.0
2018-Jan-19 04:00N 27°55' W 082°27'0 0.0
2018-Jan-19 03:30N 27°55' W 082°27'0 0.0
2018-Jan-19 03:00N 27°55' W 082°27'0 0.0
2018-Jan-19 02:30N 27°55' W 082°27'0 0.0
2018-Jan-19 02:00N 27°55' W 082°27'0 0.0
2018-Jan-19 01:30N 27°55' W 082°27'0 0.0
2018-Jan-19 01:00N 27°55' W 082°27'0 0.0
2018-Jan-19 00:30N 27°55' W 082°27'0 0.0
2018-Jan-18 23:59N 27°55' W 082°27'0 0.0
2018-Jan-18 23:30N 27°55' W 082°27'0 0.0
2018-Jan-18 23:00N 27°55' W 082°27'0 0.0
2018-Jan-18 22:30N 27°55' W 082°27'0 0.0
2018-Jan-18 22:00N 27°55' W 082°27'0 0.0
2018-Jan-18 21:30N 27°55' W 082°27'0 0.0
2018-Jan-18 21:00N 27°55' W 082°27'1 2.5
2018-Jan-18 20:30N 27°55' W 082°26'1 1.4
2018-Jan-18 20:00N 27°55' W 082°25'1 2.5
2018-Jan-18 19:30N 27°54' W 082°26'1 1.4
2018-Jan-18 19:00N 27°55' W 082°27'1 1.2
2018-Jan-18 18:30N 27°55' W 082°27'0 0.0
2018-Jan-18 18:00N 27°55' W 082°27'0 0.0
2018-Jan-18 17:30N 27°55' W 082°27'0 0.0
2018-Jan-18 17:00N 27°55' W 082°27'0 0.0
2018-Jan-18 16:30N 27°55' W 082°27'0 0.0
2018-Jan-18 15:59N 27°55' W 082°27'0 0.0
2018-Jan-18 15:30N 27°55' W 082°27'0 0.0
2018-Jan-18 15:00N 27°55' W 082°27'0 0.0
2018-Jan-18 14:30N 27°55' W 082°27'0 0.0
2018-Jan-18 14:00N 27°55' W 082°27'0 0.0
2018-Jan-18 13:30N 27°55' W 082°27'0 0.0
2018-Jan-18 13:00N 27°55' W 082°27'0 0.0
2018-Jan-18 12:30N 27°55' W 082°27'0 0.0
2018-Jan-18 12:00N 27°55' W 082°27'0 0.0
2018-Jan-18 11:30N 27°55' W 082°27'0 0.0
2018-Jan-18 11:00N 27°55' W 082°27'0 0.0
2018-Jan-18 10:30N 27°55' W 082°27'0 0.0
2018-Jan-18 10:00N 27°55' W 082°27'0 0.0
2018-Jan-18 09:30N 27°55' W 082°27'0 0.0
2018-Jan-18 09:00N 27°55' W 082°27'0 0.0
2018-Jan-18 08:30N 27°55' W 082°27'0 0.0
2018-Jan-18 08:00N 27°55' W 082°27'0 0.0
2018-Jan-18 07:30N 27°55' W 082°27'0 0.0
2018-Jan-18 07:00N 27°55' W 082°27'0 0.0
2018-Jan-18 06:30N 27°55' W 082°27'0 0.0
2018-Jan-18 06:00N 27°55' W 082°27'0 0.0
2018-Jan-18 05:29N 27°55' W 082°27'0 0.0
2018-Jan-18 05:00N 27°55' W 082°27'0 0.0
2018-Jan-18 04:30N 27°55' W 082°27'0 0.0
2018-Jan-18 04:00N 27°55' W 082°27'0 0.0
2018-Jan-18 03:30N 27°55' W 082°27'0 0.0
2018-Jan-18 03:00N 27°55' W 082°27'0 0.0
2018-Jan-18 02:30N 27°55' W 082°27'0 0.0
2018-Jan-18 02:00N 27°55' W 082°27'0 0.0
2018-Jan-18 01:30N 27°55' W 082°27'0 0.0
2018-Jan-18 01:00N 27°55' W 082°27'0 0.0
2018-Jan-18 00:00N 27°55' W 082°27'0 0.0
2018-Jan-17 23:57N 27°55' W 082°27'  

Dump ship's entire track history